createdAt,value
2018-04-25T00:00:59.059Z,14.65
2018-04-25T00:01:59.494Z,14.62
2018-04-25T00:02:59.921Z,14.65
2018-04-25T00:04:00.352Z,14.66
2018-04-25T00:05:00.784Z,14.65
2018-04-25T00:06:01.232Z,14.62
2018-04-25T00:07:01.662Z,14.68
2018-04-25T00:08:02.078Z,14.66
2018-04-25T00:09:02.509Z,14.62
2018-04-25T00:10:02.953Z,14.62
2018-04-25T00:11:03.377Z,14.60
2018-04-25T00:12:03.803Z,14.72
2018-04-25T00:13:04.236Z,14.65
2018-04-25T00:14:04.669Z,14.53
2018-04-25T00:15:05.099Z,14.54
2018-04-25T00:16:05.615Z,14.55
2018-04-25T00:17:05.967Z,14.58
2018-04-25T00:18:06.392Z,14.48
2018-04-25T00:19:06.829Z,14.53
2018-04-25T00:20:07.259Z,14.45
2018-04-25T00:21:07.685Z,14.48
2018-04-25T00:22:08.121Z,14.63
2018-04-25T00:23:08.548Z,14.55
2018-04-25T00:24:08.985Z,14.58
2018-04-25T00:25:09.409Z,14.55
2018-04-25T00:26:09.844Z,14.59
2018-04-25T00:27:10.277Z,14.53
2018-04-25T00:28:10.707Z,14.62
2018-04-25T00:29:11.139Z,14.53
2018-04-25T00:30:11.587Z,14.54
2018-04-25T00:31:12.007Z,14.55
2018-04-25T00:32:12.431Z,14.55
2018-04-25T00:33:12.861Z,14.58
2018-04-25T00:34:13.299Z,14.44
2018-04-25T00:35:13.725Z,14.51
2018-04-25T00:36:14.158Z,14.55
2018-04-25T00:37:14.591Z,14.53
2018-04-25T00:38:15.016Z,14.48
2018-04-25T00:39:15.447Z,14.37
2018-04-25T00:40:15.878Z,14.37
2018-04-25T00:41:16.384Z,14.30
2018-04-25T00:42:16.743Z,14.28
2018-04-25T00:43:17.175Z,14.26
2018-04-25T00:44:17.602Z,14.22
2018-04-25T00:45:18.047Z,14.30
2018-04-25T00:46:18.465Z,14.33
2018-04-25T00:47:18.896Z,14.35
2018-04-25T00:48:19.331Z,14.41
2018-04-25T00:49:19.759Z,14.43
2018-04-25T00:50:20.191Z,14.26
2018-04-25T00:51:20.620Z,14.30
2018-04-25T00:52:21.058Z,14.45
2018-04-25T00:53:21.489Z,14.30
2018-04-25T00:54:21.915Z,14.35
2018-04-25T00:55:22.345Z,14.35
2018-04-25T00:56:22.785Z,14.43
2018-04-25T00:57:23.209Z,14.33
2018-04-25T00:58:23.639Z,14.36
2018-04-25T00:59:24.069Z,14.30
2018-04-25T01:00:24.503Z,14.29
2018-04-25T01:01:24.940Z,14.29
2018-04-25T01:02:25.369Z,14.33
2018-04-25T01:03:25.796Z,14.33
2018-04-25T01:04:26.228Z,14.32
2018-04-25T01:05:26.657Z,14.35
2018-04-25T01:06:27.118Z,14.32
2018-04-25T01:07:27.523Z,14.37
2018-04-25T01:08:27.955Z,14.29
2018-04-25T01:09:28.403Z,14.23
2018-04-25T01:10:28.822Z,14.22
2018-04-25T01:11:29.272Z,14.25
2018-04-25T01:12:29.677Z,14.26
2018-04-25T01:13:30.108Z,14.17
2018-04-25T01:14:30.538Z,14.30
2018-04-25T01:15:30.974Z,14.29
2018-04-25T01:16:31.409Z,14.32
2018-04-25T01:17:31.832Z,14.26
2018-04-25T01:18:32.267Z,14.22
2018-04-25T01:19:32.707Z,14.20
2018-04-25T01:20:33.127Z,14.22
2018-04-25T01:21:33.559Z,14.23
2018-04-25T01:22:33.986Z,14.22
2018-04-25T01:23:34.421Z,14.32
2018-04-25T01:24:34.848Z,14.23
2018-04-25T01:25:35.289Z,14.30
2018-04-25T01:26:35.717Z,14.25
2018-04-25T01:27:36.141Z,14.26
2018-04-25T01:28:36.570Z,14.25
2018-04-25T01:29:37.012Z,14.14
2018-04-25T01:30:37.438Z,14.11
2018-04-25T01:31:37.869Z,14.05
2018-04-25T01:32:38.308Z,14.10
2018-04-25T01:33:38.730Z,14.18
2018-04-25T01:34:39.161Z,14.05
2018-04-25T01:35:39.590Z,14.11
2018-04-25T01:36:40.089Z,14.12
2018-04-25T01:37:40.461Z,14.05
2018-04-25T01:38:40.885Z,14.07
2018-04-25T01:39:41.314Z,14.08
2018-04-25T01:40:41.749Z,14.03
2018-04-25T01:41:42.176Z,13.93
2018-04-25T01:42:42.610Z,13.93
2018-04-25T01:43:43.039Z,13.92
2018-04-25T01:44:43.467Z,13.93
2018-04-25T01:45:43.905Z,14.03
2018-04-25T01:46:44.329Z,14.08
2018-04-25T01:47:44.773Z,14.04
2018-04-25T01:48:45.193Z,14.07
2018-04-25T01:49:45.627Z,14.18
2018-04-25T01:50:46.058Z,14.10
2018-04-25T01:51:46.513Z,14.11
2018-04-25T01:52:46.918Z,14.00
2018-04-25T01:53:47.350Z,13.93
2018-04-25T01:54:47.786Z,13.90
2018-04-25T01:55:48.210Z,13.89
2018-04-25T01:56:48.640Z,13.87
2018-04-25T01:57:49.071Z,13.96
2018-04-25T01:58:49.501Z,13.95
2018-04-25T01:59:49.930Z,13.92
2018-04-25T02:00:50.366Z,13.96
2018-04-25T02:01:50.797Z,13.96
2018-04-25T02:02:51.226Z,13.90
2018-04-25T02:03:51.656Z,14.00
2018-04-25T02:04:52.086Z,13.93
2018-04-25T02:05:52.522Z,13.93
2018-04-25T02:06:52.947Z,13.92
2018-04-25T02:07:53.380Z,13.89
2018-04-25T02:08:53.810Z,13.95
2018-04-25T02:09:54.244Z,13.87
2018-04-25T02:10:54.670Z,14.07
2018-04-25T02:11:55.102Z,14.07
2018-04-25T02:12:55.534Z,14.07
2018-04-25T02:13:55.962Z,14.14
2018-04-25T02:14:56.395Z,14.05
2018-04-25T02:15:56.824Z,14.07
2018-04-25T02:16:57.256Z,14.12
2018-04-25T02:17:57.686Z,14.22
2018-04-25T02:18:58.182Z,14.17
2018-04-25T02:19:58.550Z,14.17
2018-04-25T02:20:58.982Z,14.22
2018-04-25T02:21:59.414Z,14.22
2018-04-25T02:22:59.841Z,14.22
2018-04-25T02:24:00.274Z,14.25
2018-04-25T02:25:00.700Z,14.28
2018-04-25T02:26:01.131Z,14.26
2018-04-25T02:27:01.577Z,14.18
2018-04-25T02:28:01.999Z,14.23
2018-04-25T02:29:02.439Z,14.23
2018-04-25T02:30:02.858Z,14.20
2018-04-25T02:31:03.292Z,14.11
2018-04-25T02:32:03.720Z,14.07
2018-04-25T02:33:04.153Z,14.07
2018-04-25T02:34:04.584Z,14.07
2018-04-25T02:35:05.013Z,14.04
2018-04-25T02:36:05.451Z,14.05
2018-04-25T02:37:05.880Z,14.00
2018-04-25T02:38:06.306Z,14.05
2018-04-25T02:39:06.738Z,13.89
2018-04-25T02:40:07.167Z,13.95
2018-04-25T02:41:07.604Z,13.77
2018-04-25T02:42:08.031Z,13.78
2018-04-25T02:43:08.463Z,13.77
2018-04-25T02:44:08.893Z,13.68
2018-04-25T02:45:09.321Z,13.78
2018-04-25T02:46:09.754Z,13.81
2018-04-25T02:47:10.184Z,13.71
2018-04-25T02:48:10.617Z,13.74
2018-04-25T02:49:11.045Z,13.85
2018-04-25T02:50:11.477Z,13.71
2018-04-25T02:51:11.910Z,13.74
2018-04-25T02:52:12.338Z,13.71
2018-04-25T02:53:12.771Z,13.65
2018-04-25T02:54:13.202Z,13.60
2018-04-25T02:55:13.634Z,13.77
2018-04-25T02:56:14.062Z,13.71
2018-04-25T02:57:14.494Z,13.63
2018-04-25T02:58:14.923Z,13.65
2018-04-25T02:59:15.350Z,13.56
2018-04-25T03:00:15.781Z,13.49
2018-04-25T03:01:16.213Z,13.49
2018-04-25T03:02:16.668Z,13.47
2018-04-25T03:03:17.073Z,13.39
2018-04-25T03:04:17.505Z,13.39
2018-04-25T03:05:17.940Z,13.44
2018-04-25T03:06:18.364Z,13.52
2018-04-25T03:07:18.794Z,13.46
2018-04-25T03:08:19.229Z,13.39
2018-04-25T03:09:19.655Z,13.39
2018-04-25T03:10:20.085Z,13.39
2018-04-25T03:11:20.516Z,13.39
2018-04-25T03:12:20.951Z,13.49
2018-04-25T03:13:21.376Z,13.44
2018-04-25T03:14:21.805Z,13.44
2018-04-25T03:15:22.245Z,13.52
2018-04-25T03:16:22.671Z,13.47
2018-04-25T03:17:23.099Z,13.41
2018-04-25T03:18:23.527Z,13.37
2018-04-25T03:19:23.958Z,13.42
2018-04-25T03:20:24.395Z,13.39
2018-04-25T03:21:24.817Z,13.49
2018-04-25T03:22:25.250Z,13.39
2018-04-25T03:23:25.682Z,13.41
2018-04-25T03:24:26.110Z,13.57
2018-04-25T03:25:26.539Z,13.44
2018-04-25T03:26:26.968Z,13.47
2018-04-25T03:27:27.402Z,13.47
2018-04-25T03:28:27.827Z,13.37
2018-04-25T03:29:28.261Z,13.41
2018-04-25T03:30:28.692Z,13.39
2018-04-25T03:31:29.119Z,13.39
2018-04-25T03:32:29.549Z,13.35
2018-04-25T03:33:29.978Z,13.35
2018-04-25T03:34:30.407Z,13.31
2018-04-25T03:35:30.842Z,13.33
2018-04-25T03:36:31.271Z,13.37
2018-04-25T03:37:31.699Z,13.38
2018-04-25T03:38:32.136Z,13.37
2018-04-25T03:39:32.559Z,13.39
2018-04-25T03:40:32.987Z,13.47
2018-04-25T03:41:33.420Z,13.44
2018-04-25T03:42:33.859Z,13.41
2018-04-25T03:43:34.277Z,13.49
2018-04-25T03:44:34.711Z,13.46
2018-04-25T03:45:35.141Z,13.56
2018-04-25T03:46:35.569Z,13.60
2018-04-25T03:47:35.997Z,13.62
2018-04-25T03:48:36.429Z,13.68
2018-04-25T03:49:36.867Z,13.68
2018-04-25T03:50:37.291Z,13.67
2018-04-25T03:51:37.719Z,13.57
2018-04-25T03:52:38.147Z,13.46
2018-04-25T03:53:38.581Z,13.57
2018-04-25T03:54:39.009Z,13.56
2018-04-25T03:55:39.441Z,13.62
2018-04-25T03:56:39.917Z,13.65
2018-04-25T03:57:40.310Z,13.63
2018-04-25T03:58:40.735Z,13.62
2018-04-25T03:59:41.158Z,13.70
2018-04-25T04:00:41.591Z,13.63
2018-04-25T04:01:42.033Z,13.70
2018-04-25T04:02:42.462Z,13.60
2018-04-25T04:03:42.886Z,13.62
2018-04-25T04:04:43.318Z,13.62
2018-04-25T04:05:43.743Z,13.68
2018-04-25T04:06:44.174Z,13.68
2018-04-25T04:07:44.608Z,13.71
2018-04-25T04:08:45.047Z,13.63
2018-04-25T04:09:45.465Z,13.68
2018-04-25T04:10:45.892Z,13.70
2018-04-25T04:11:46.327Z,13.79
2018-04-25T04:12:46.753Z,13.75
2018-04-25T04:13:47.189Z,13.75
2018-04-25T04:14:47.617Z,13.81
2018-04-25T04:15:48.046Z,13.68
2018-04-25T04:16:48.484Z,13.70
2018-04-25T04:17:48.905Z,13.62
2018-04-25T04:18:49.337Z,13.65
2018-04-25T04:19:49.773Z,13.72
2018-04-25T04:20:50.203Z,13.67
2018-04-25T04:21:50.630Z,13.62
2018-04-25T04:22:51.055Z,13.53
2018-04-25T04:23:51.493Z,13.49
2018-04-25T04:24:51.929Z,13.56
2018-04-25T04:25:52.353Z,13.52
2018-04-25T04:26:52.785Z,13.56
2018-04-25T04:27:53.216Z,13.54
2018-04-25T04:28:53.643Z,13.47
2018-04-25T04:29:54.072Z,13.54
2018-04-25T04:30:54.503Z,13.67
2018-04-25T04:31:54.937Z,13.72
2018-04-25T04:32:55.364Z,13.63
2018-04-25T04:33:55.797Z,13.70
2018-04-25T04:34:56.225Z,13.68
2018-04-25T04:35:56.655Z,13.71
2018-04-25T04:36:57.086Z,13.67
2018-04-25T04:37:57.588Z,13.71
2018-04-25T04:38:57.956Z,13.67
2018-04-25T04:39:58.378Z,13.70
2018-04-25T04:40:58.810Z,13.67
2018-04-25T04:41:59.236Z,13.85
2018-04-25T04:42:59.671Z,13.68
2018-04-25T04:44:00.100Z,13.78
2018-04-25T04:45:00.536Z,13.79
2018-04-25T04:46:00.959Z,13.71
2018-04-25T04:47:01.403Z,13.78
2018-04-25T04:48:01.840Z,13.77
2018-04-25T04:49:02.252Z,13.93
2018-04-25T04:50:02.712Z,13.95
2018-04-25T04:51:03.143Z,13.93
2018-04-25T04:52:03.552Z,13.90
2018-04-25T04:53:04.003Z,13.86
2018-04-25T04:54:04.437Z,13.95
2018-04-25T04:55:04.865Z,13.90
2018-04-25T04:56:05.275Z,13.89
2018-04-25T04:57:05.698Z,13.89
2018-04-25T04:58:06.122Z,13.93
2018-04-25T04:59:06.559Z,14.00
2018-04-25T05:00:06.999Z,13.97
2018-04-25T05:01:07.428Z,14.05
2018-04-25T05:02:07.850Z,14.10
2018-04-25T05:03:08.331Z,14.11
2018-04-25T05:04:08.713Z,14.14
2018-04-25T05:05:09.163Z,14.12
2018-04-25T05:06:09.575Z,14.17
2018-04-25T05:07:10.002Z,14.22
2018-04-25T05:08:10.444Z,14.15
2018-04-25T05:09:10.867Z,14.12
2018-04-25T05:10:11.306Z,14.12
2018-04-25T05:11:11.725Z,14.12
2018-04-25T05:12:12.187Z,14.11
2018-04-25T05:13:12.685Z,14.12
2018-04-25T05:14:13.012Z,14.08
2018-04-25T05:15:13.455Z,14.10
2018-04-25T05:16:13.902Z,14.08
2018-04-25T05:17:14.346Z,14.25
2018-04-25T05:18:14.745Z,14.30
2018-04-25T05:19:15.174Z,14.32
2018-04-25T05:20:15.634Z,14.33
2018-04-25T05:21:16.035Z,14.36
2018-04-25T05:22:16.466Z,14.35
2018-04-25T05:23:16.895Z,14.40
2018-04-25T05:24:17.339Z,14.44
2018-04-25T05:25:17.769Z,14.55
2018-04-25T05:26:18.193Z,14.47
2018-04-25T05:27:18.627Z,14.48
2018-04-25T05:28:19.055Z,14.40
2018-04-25T05:29:19.499Z,14.44
2018-04-25T05:30:19.925Z,14.37
2018-04-25T05:31:20.388Z,14.54
2018-04-25T05:32:20.779Z,14.41
2018-04-25T05:33:21.210Z,14.40
2018-04-25T05:34:21.660Z,14.32
2018-04-25T05:35:22.074Z,14.35
2018-04-25T05:36:22.505Z,14.32
2018-04-25T05:37:22.949Z,14.36
2018-04-25T05:38:23.377Z,14.50
2018-04-25T05:39:23.801Z,14.54
2018-04-25T05:40:24.248Z,14.55
2018-04-25T05:41:24.705Z,14.48
2018-04-25T05:42:25.147Z,14.55
2018-04-25T05:43:25.532Z,14.60
2018-04-25T05:44:25.965Z,14.59
2018-04-25T05:45:26.415Z,14.63
2018-04-25T05:46:26.816Z,14.55
2018-04-25T05:47:27.263Z,14.44
2018-04-25T05:48:27.688Z,14.37
2018-04-25T05:49:28.131Z,14.33
2018-04-25T05:50:28.542Z,14.32
2018-04-25T05:51:28.980Z,14.30
2018-04-25T05:52:29.407Z,14.25
2018-04-25T05:53:29.836Z,14.15
2018-04-25T05:54:30.281Z,14.07
2018-04-25T05:55:30.708Z,14.07
2018-04-25T05:56:31.134Z,14.05
2018-04-25T05:57:31.587Z,14.14
2018-04-25T05:58:31.993Z,14.22
2018-04-25T05:59:32.423Z,14.23
2018-04-25T06:00:32.865Z,14.26
2018-04-25T06:01:33.295Z,14.14
2018-04-25T06:02:33.720Z,14.26
2018-04-25T06:03:34.193Z,14.32
2018-04-25T06:04:34.601Z,14.29
2018-04-25T06:05:35.031Z,14.35
2018-04-25T06:06:35.454Z,14.35
2018-04-25T06:07:35.878Z,14.37
2018-04-25T06:08:36.313Z,14.32
2018-04-25T06:09:36.729Z,14.33
2018-04-25T06:10:37.189Z,14.43
2018-04-25T06:11:37.594Z,14.33
2018-04-25T06:12:38.113Z,14.37
2018-04-25T06:13:38.466Z,14.41
2018-04-25T06:14:38.886Z,14.50
2018-04-25T06:15:39.319Z,14.51
2018-04-25T06:16:39.754Z,14.59
2018-04-25T06:17:40.183Z,14.50
2018-04-25T06:18:40.623Z,14.53
2018-04-25T06:19:41.063Z,14.58
2018-04-25T06:20:41.502Z,14.58
2018-04-25T06:21:41.919Z,14.65
2018-04-25T06:22:42.343Z,14.63
2018-04-25T06:23:42.773Z,14.68
2018-04-25T06:24:43.199Z,14.62
2018-04-25T06:25:43.623Z,14.68
2018-04-25T06:26:44.064Z,14.63
2018-04-25T06:27:44.505Z,14.65
2018-04-25T06:28:44.926Z,14.65
2018-04-25T06:29:45.350Z,14.70
2018-04-25T06:30:45.791Z,14.79
2018-04-25T06:31:46.242Z,14.82
2018-04-25T06:32:46.658Z,14.79
2018-04-25T06:33:47.080Z,14.73
2018-04-25T06:34:47.572Z,14.82
2018-04-25T06:35:47.943Z,14.88
2018-04-25T06:36:48.376Z,14.89
2018-04-25T06:37:48.804Z,14.89
2018-04-25T06:38:49.233Z,14.81
2018-04-25T06:39:49.670Z,14.82
2018-04-25T06:40:50.100Z,14.72
2018-04-25T06:41:50.531Z,14.92
2018-04-25T06:42:50.967Z,15.46
2018-04-25T06:43:51.391Z,15.37
2018-04-25T06:44:51.903Z,15.22
2018-04-25T06:45:52.253Z,15.14
2018-04-25T06:46:52.684Z,15.04
2018-04-25T06:47:53.117Z,15.09
2018-04-25T06:48:53.547Z,15.09
2018-04-25T06:49:53.980Z,15.10
2018-04-25T06:50:54.414Z,15.00
2018-04-25T06:51:54.840Z,15.11
2018-04-25T06:52:55.273Z,15.21
2018-04-25T06:53:55.705Z,15.24
2018-04-25T06:54:56.142Z,15.77
2018-04-25T06:55:56.567Z,15.64
2018-04-25T06:56:57.005Z,15.73
2018-04-25T06:57:57.452Z,15.67
2018-04-25T06:58:57.868Z,15.52
2018-04-25T06:59:58.291Z,15.52
2018-04-25T07:00:58.726Z,15.57
2018-04-25T07:01:59.160Z,15.43
2018-04-25T07:02:59.591Z,15.44
2018-04-25T07:04:00.027Z,15.47
2018-04-25T07:05:00.454Z,15.59
2018-04-25T07:06:00.893Z,15.65
2018-04-25T07:07:01.323Z,15.55
2018-04-25T07:08:01.840Z,15.49
2018-04-25T07:09:02.182Z,15.42
2018-04-25T07:10:02.617Z,15.52
2018-04-25T07:11:03.049Z,15.33
2018-04-25T07:12:03.478Z,15.31
2018-04-25T07:13:03.918Z,15.49
2018-04-25T07:14:04.428Z,15.36
2018-04-25T07:15:04.772Z,15.44
2018-04-25T07:16:05.226Z,15.44
2018-04-25T07:17:05.643Z,15.47
2018-04-25T07:18:06.073Z,15.54
2018-04-25T07:19:06.506Z,15.59
2018-04-25T07:20:06.993Z,15.57
2018-04-25T07:21:07.369Z,15.64
2018-04-25T07:22:07.805Z,15.57
2018-04-25T07:23:08.244Z,15.52
2018-04-25T07:24:08.676Z,15.52
2018-04-25T07:25:09.120Z,15.54
2018-04-25T07:26:09.539Z,15.47
2018-04-25T07:27:09.964Z,15.42
2018-04-25T07:28:10.396Z,15.46
2018-04-25T07:29:10.830Z,15.57
2018-04-25T07:30:11.261Z,15.59
2018-04-25T07:31:11.694Z,15.54
2018-04-25T07:32:12.131Z,15.59
2018-04-25T07:33:12.554Z,15.55
2018-04-25T07:34:12.997Z,15.42
2018-04-25T07:35:13.423Z,15.42
2018-04-25T07:36:13.910Z,15.46
2018-04-25T07:37:14.287Z,15.40
2018-04-25T07:38:14.719Z,15.44
2018-04-25T07:39:15.158Z,15.44
2018-04-25T07:40:15.585Z,15.44
2018-04-25T07:41:16.024Z,15.47
2018-04-25T07:42:16.454Z,15.47
2018-04-25T07:43:16.886Z,15.46
2018-04-25T07:44:17.316Z,15.61
2018-04-25T07:45:17.750Z,15.57
2018-04-25T07:46:18.179Z,15.75
2018-04-25T07:47:18.615Z,15.75
2018-04-25T07:48:19.047Z,15.70
2018-04-25T07:49:19.483Z,15.91
2018-04-25T07:50:19.915Z,15.84
2018-04-25T07:51:20.348Z,15.82
2018-04-25T07:52:20.836Z,15.80
2018-04-25T07:53:21.215Z,15.80
2018-04-25T07:54:21.644Z,15.91
2018-04-25T07:55:22.076Z,15.86
2018-04-25T07:56:22.511Z,15.88
2018-04-25T07:57:22.943Z,15.97
2018-04-25T07:58:23.378Z,15.91
2018-04-25T07:59:23.810Z,15.92
2018-04-25T08:00:24.242Z,15.94
2018-04-25T08:01:24.675Z,15.97
2018-04-25T08:02:25.110Z,16.01
2018-04-25T08:03:25.544Z,16.08
2018-04-25T08:04:25.979Z,15.79
2018-04-25T08:05:26.411Z,15.92
2018-04-25T08:06:26.841Z,15.92
2018-04-25T08:07:27.298Z,16.09
2018-04-25T08:08:27.715Z,16.04
2018-04-25T08:09:28.149Z,16.04
2018-04-25T08:10:28.584Z,16.02
2018-04-25T08:11:29.009Z,15.88
2018-04-25T08:12:29.440Z,15.98
2018-04-25T08:13:29.877Z,16.17
2018-04-25T08:14:30.312Z,16.29
2018-04-25T08:15:30.746Z,16.50
2018-04-25T08:16:31.176Z,16.64
2018-04-25T08:17:31.622Z,16.78
2018-04-25T08:18:32.048Z,16.84
2018-04-25T08:19:32.488Z,16.76
2018-04-25T08:20:32.914Z,17.09
2018-04-25T08:21:33.348Z,17.16
2018-04-25T08:22:33.783Z,17.09
2018-04-25T08:23:34.220Z,17.39
2018-04-25T08:24:37.534Z,17.59
2018-04-25T08:25:36.040Z,17.60
2018-04-25T08:26:35.532Z,17.74
2018-04-25T08:27:50.539Z,17.72
2018-04-25T08:28:39.057Z,17.64
2018-04-25T08:29:36.840Z,17.71
2018-04-25T08:30:37.269Z,17.59
2018-04-25T08:31:37.705Z,17.64
2018-04-25T08:32:38.145Z,17.76
2018-04-25T08:33:38.624Z,17.83
2018-04-25T08:35:00.181Z,17.49
2018-04-25T08:35:39.461Z,17.39
2018-04-25T08:36:39.890Z,17.57
2018-04-25T08:37:40.339Z,17.26
2018-04-25T08:38:40.774Z,17.02
2018-04-25T08:39:41.199Z,17.15
2018-04-25T08:40:41.641Z,17.34
2018-04-25T08:41:42.085Z,17.57
2018-04-25T08:42:42.520Z,17.12
2018-04-25T08:43:42.980Z,17.08
2018-04-25T08:44:43.408Z,17.19
2018-04-25T08:45:43.817Z,17.14
2018-04-25T08:46:44.277Z,16.87
2018-04-25T08:47:44.699Z,17.19
2018-04-25T08:48:45.134Z,17.22
2018-04-25T08:49:46.549Z,17.12
2018-04-25T08:50:46.008Z,17.30
2018-04-25T08:51:46.435Z,17.29
2018-04-25T08:52:46.907Z,17.70
2018-04-25T08:53:50.050Z,17.85
2018-04-25T08:54:47.756Z,17.71
2018-04-25T08:55:48.197Z,17.78
2018-04-25T08:56:51.570Z,17.86
2018-04-25T08:57:49.055Z,17.98
2018-04-25T08:58:52.050Z,18.13
2018-04-25T08:59:49.947Z,18.05
2018-04-25T09:00:50.373Z,18.07
2018-04-25T09:01:50.814Z,18.03
2018-04-25T09:02:51.247Z,18.10
2018-04-25T09:03:51.689Z,18.22
2018-04-25T09:04:52.159Z,18.35
2018-04-25T09:05:52.652Z,18.13
2018-04-25T09:06:53.022Z,18.10
2018-04-25T09:07:53.459Z,18.03
2018-04-25T09:08:53.892Z,18.18
2018-04-25T09:09:54.314Z,18.56
2018-04-25T09:10:54.795Z,18.95
2018-04-25T09:11:55.191Z,19.09
2018-04-25T09:12:55.622Z,19.26
2018-04-25T09:13:56.065Z,19.24
2018-04-25T09:14:56.512Z,19.39
2018-04-25T09:15:56.942Z,19.71
2018-04-25T09:16:57.387Z,19.96
2018-04-25T09:17:57.829Z,20.28
2018-04-25T09:18:58.264Z,20.56
2018-04-25T09:19:58.702Z,20.04
2018-04-25T09:20:59.176Z,20.52
2018-04-25T09:21:59.582Z,20.95
2018-04-25T09:23:55.233Z,21.45
2018-04-25T09:24:55.663Z,21.73
2018-04-25T09:26:50.263Z,22.18
2018-04-25T09:27:50.721Z,22.39
2018-04-25T09:29:45.307Z,21.17
2018-04-25T09:30:45.741Z,20.63
2018-04-25T09:32:40.354Z,22.20
2018-04-25T09:33:40.807Z,21.43
2018-04-25T09:35:35.408Z,21.06
2018-04-25T09:36:35.853Z,21.42
2018-04-25T09:38:30.449Z,21.60
2018-04-25T09:39:30.902Z,21.58
2018-04-25T09:41:25.582Z,22.76
2018-04-25T09:42:25.964Z,22.29
2018-04-25T09:44:20.572Z,23.48
2018-04-25T09:45:21.024Z,23.24
2018-04-25T09:47:15.630Z,23.40
2018-04-25T09:48:16.078Z,23.12
2018-04-25T09:50:10.690Z,22.20
2018-04-25T09:51:11.130Z,21.27
2018-04-25T09:53:06.716Z,21.17
2018-04-25T09:54:07.162Z,20.39
2018-04-25T09:56:01.765Z,21.33
2018-04-25T09:57:02.200Z,21.17
2018-04-25T09:58:56.802Z,21.17
2018-04-25T09:59:57.252Z,20.51
2018-04-25T10:01:51.858Z,20.99
2018-04-25T10:02:52.285Z,21.30
2018-04-25T10:04:47.885Z,20.58
2018-04-25T10:05:48.314Z,20.51
2018-04-25T10:07:43.895Z,20.62
2018-04-25T10:08:44.329Z,20.90
2018-04-25T10:10:38.933Z,20.62
2018-04-25T10:11:39.364Z,20.62
2018-04-25T10:13:33.960Z,20.55
2018-04-25T10:14:34.411Z,20.39
2018-04-25T10:16:28.993Z,20.22
2018-04-25T10:17:29.424Z,19.82
2018-04-25T10:19:25.014Z,20.03
2018-04-25T10:20:25.437Z,19.82
2018-04-25T10:22:20.045Z,20.29
2018-04-25T10:23:20.487Z,20.55
2018-04-25T10:25:16.046Z,21.35
2018-04-25T10:26:16.514Z,22.48
2018-04-25T10:28:11.090Z,23.62
2018-04-25T10:29:11.535Z,23.56
2018-04-25T10:31:06.120Z,21.42
2018-04-25T10:32:06.653Z,22.36
2018-04-25T10:34:01.187Z,21.72
2018-04-25T10:35:01.631Z,21.88
2018-04-25T10:36:02.077Z,20.97
2018-04-25T10:37:02.521Z,20.47
2018-04-25T10:38:02.970Z,20.26
2018-04-25T10:39:03.415Z,20.24
2018-04-25T10:40:03.863Z,20.36
2018-04-25T10:41:04.307Z,20.11
2018-04-25T10:42:04.754Z,20.36
2018-04-25T10:43:05.201Z,20.48
2018-04-25T10:44:05.651Z,20.21
2018-04-25T10:45:06.090Z,20.48
2018-04-25T10:46:06.528Z,20.22
2018-04-25T10:47:06.978Z,19.89
2018-04-25T10:48:07.419Z,20.06
2018-04-25T10:49:07.858Z,19.56
2018-04-25T10:50:08.304Z,19.41
2018-04-25T10:51:08.745Z,19.66
2018-04-25T10:52:09.188Z,19.85
2018-04-25T10:53:09.632Z,19.82
2018-04-25T10:54:10.070Z,19.99
2018-04-25T10:55:10.512Z,19.88
2018-04-25T10:56:10.948Z,19.44
2018-04-25T10:57:11.398Z,19.49
2018-04-25T10:58:11.834Z,19.79
2018-04-25T10:59:12.278Z,19.77
2018-04-25T11:00:12.713Z,19.59
2018-04-25T11:01:13.158Z,19.49
2018-04-25T11:02:13.594Z,19.44
2018-04-25T11:03:14.033Z,19.66
2018-04-25T11:04:14.475Z,19.54
2018-04-25T11:05:14.918Z,19.48
2018-04-25T11:06:15.356Z,19.39
2018-04-25T11:07:15.794Z,19.54
2018-04-25T11:08:16.241Z,19.45
2018-04-25T11:09:16.671Z,19.21
2018-04-25T11:10:17.126Z,18.53
2018-04-25T11:11:17.553Z,18.25
2018-04-25T11:12:18.006Z,18.15
2018-04-25T11:13:18.435Z,18.00
2018-04-25T11:14:18.870Z,17.31
2018-04-25T11:15:19.309Z,17.24
2018-04-25T11:16:19.743Z,17.02
2018-04-25T11:17:20.185Z,16.49
2018-04-25T11:18:20.621Z,16.26
2018-04-25T11:19:21.057Z,16.13
2018-04-25T11:20:21.550Z,16.13
2018-04-25T11:21:21.922Z,15.98
2018-04-25T11:22:22.366Z,16.00
2018-04-25T11:23:22.792Z,15.97
2018-04-25T11:24:23.229Z,15.79
2018-04-25T11:25:23.663Z,15.92
2018-04-25T11:26:24.159Z,15.65
2018-04-25T11:27:24.533Z,15.58
2018-04-25T11:28:24.967Z,15.59
2018-04-25T11:29:25.402Z,15.31
2018-04-25T11:30:25.836Z,15.07
2018-04-25T11:31:26.277Z,15.02
2018-04-25T11:32:26.708Z,15.09
2018-04-25T11:33:27.135Z,15.14
2018-04-25T11:34:27.565Z,15.07
2018-04-25T11:35:27.999Z,15.03
2018-04-25T11:36:28.491Z,15.11
2018-04-25T11:37:28.873Z,15.00
2018-04-25T11:38:29.293Z,14.99
2018-04-25T11:39:29.733Z,15.03
2018-04-25T11:40:30.162Z,15.04
2018-04-25T11:41:30.595Z,15.03
2018-04-25T11:42:31.028Z,15.07
2018-04-25T11:43:31.462Z,15.18
2018-04-25T11:44:31.898Z,15.09
2018-04-25T11:45:32.326Z,15.19
2018-04-25T11:46:32.774Z,15.37
2018-04-25T11:47:33.186Z,15.40
2018-04-25T11:48:33.629Z,15.52
2018-04-25T11:49:34.054Z,15.80
2018-04-25T11:50:34.490Z,15.97
2018-04-25T11:51:34.923Z,15.94
2018-04-25T11:52:35.366Z,16.17
2018-04-25T11:53:35.790Z,16.28
2018-04-25T11:54:36.220Z,16.24
2018-04-25T11:55:36.656Z,16.38
2018-04-25T11:56:37.090Z,16.47
2018-04-25T11:57:37.533Z,16.50
2018-04-25T11:58:38.016Z,16.68
2018-04-25T11:59:38.447Z,16.93
2018-04-25T12:00:38.831Z,16.91
2018-04-25T12:01:39.261Z,17.09
2018-04-25T12:02:39.694Z,16.83
2018-04-25T12:03:40.127Z,17.06
2018-04-25T12:04:40.600Z,17.19
2018-04-25T12:05:41.000Z,16.87
2018-04-25T12:06:41.436Z,16.99
2018-04-25T12:07:41.867Z,17.08
2018-04-25T12:08:42.305Z,17.26
2018-04-25T12:09:42.745Z,17.20
2018-04-25T12:10:43.176Z,17.31
2018-04-25T12:11:43.620Z,17.41
2018-04-25T12:12:44.042Z,17.29
2018-04-25T12:13:44.482Z,17.41
2018-04-25T12:14:44.921Z,17.44
2018-04-25T12:15:45.351Z,17.51
2018-04-25T12:16:45.787Z,17.60
2018-04-25T12:17:46.223Z,17.65
2018-04-25T12:18:46.679Z,17.59
2018-04-25T12:19:47.091Z,17.59
2018-04-25T12:20:47.533Z,17.70
2018-04-25T12:21:47.955Z,17.65
2018-04-25T12:22:48.403Z,17.67
2018-04-25T12:23:48.828Z,17.70
2018-04-25T12:24:49.263Z,17.86
2018-04-25T12:25:49.700Z,17.95
2018-04-25T12:26:50.134Z,18.05
2018-04-25T12:27:50.572Z,17.97
2018-04-25T12:28:51.005Z,18.04
2018-04-25T12:29:51.437Z,18.08
2018-04-25T12:30:51.874Z,18.23
2018-04-25T12:31:52.311Z,18.41
2018-04-25T12:32:52.743Z,18.44
2018-04-25T12:33:53.187Z,18.43
2018-04-25T12:34:53.620Z,18.23
2018-04-25T12:35:54.156Z,18.37
2018-04-25T12:36:54.502Z,18.33
2018-04-25T12:37:54.925Z,18.47
2018-04-25T12:38:55.373Z,18.49
2018-04-25T12:39:55.796Z,18.38
2018-04-25T12:40:56.235Z,17.80
2018-04-25T12:41:56.670Z,17.79
2018-04-25T12:42:57.117Z,17.92
2018-04-25T12:43:57.556Z,17.80
2018-04-25T12:44:57.984Z,17.85
2018-04-25T12:45:58.424Z,17.87
2018-04-25T12:46:58.854Z,18.00
2018-04-25T12:47:59.285Z,18.31
2018-04-25T12:48:59.725Z,18.28
2018-04-25T12:50:00.171Z,18.11
2018-04-25T12:51:00.654Z,18.19
2018-04-25T12:52:01.038Z,18.22
2018-04-25T12:53:01.471Z,18.35
2018-04-25T12:54:01.925Z,18.20
2018-04-25T12:55:02.389Z,18.19
2018-04-25T12:56:02.792Z,17.92
2018-04-25T12:57:03.222Z,17.92
2018-04-25T12:58:03.658Z,18.00
2018-04-25T12:59:04.102Z,18.04
2018-04-25T13:00:04.590Z,18.08
2018-04-25T13:01:04.974Z,18.28
2018-04-25T13:02:05.396Z,18.29
2018-04-25T13:03:05.881Z,18.08
2018-04-25T13:04:06.268Z,18.03
2018-04-25T13:05:06.716Z,18.26
2018-04-25T13:06:07.145Z,18.22
2018-04-25T13:07:07.575Z,18.10
2018-04-25T13:08:08.036Z,18.22
2018-04-25T13:09:08.550Z,18.55
2018-04-25T13:10:08.892Z,18.58
2018-04-25T13:11:09.367Z,18.80
2018-04-25T13:12:09.783Z,18.74
2018-04-25T13:13:10.207Z,18.66
2018-04-25T13:14:10.637Z,18.86
2018-04-25T13:15:11.099Z,18.90
2018-04-25T13:16:11.515Z,18.99
2018-04-25T13:17:11.945Z,18.65
2018-04-25T13:18:12.385Z,18.71
2018-04-25T13:19:12.828Z,18.53
2018-04-25T13:20:13.268Z,18.70
2018-04-25T13:21:13.714Z,18.93